createdAt,value
2022-08-20T00:01:19.290Z,61.76
2022-08-20T00:03:53.315Z,61.50
2022-08-20T00:06:25.487Z,61.50
2022-08-20T00:08:57.367Z,61.73
2022-08-20T00:11:29.608Z,61.62
2022-08-20T00:14:04.562Z,61.65
2022-08-20T00:16:38.401Z,61.60
2022-08-20T00:19:10.999Z,61.73
2022-08-20T00:21:43.222Z,61.71
2022-08-20T00:24:15.383Z,61.79
2022-08-20T00:26:51.678Z,61.62
2022-08-20T00:29:24.373Z,61.44
2022-08-20T00:31:56.514Z,61.06
2022-08-20T00:34:28.519Z,61.37
2022-08-20T00:37:00.445Z,61.33
2022-08-20T00:39:32.429Z,61.48
2022-08-20T00:42:04.673Z,61.24
2022-08-20T00:44:37.157Z,61.20
2022-08-20T00:47:09.310Z,61.30
2022-08-20T00:49:42.277Z,61.30
2022-08-20T00:52:18.848Z,60.87
2022-08-20T00:54:54.125Z,60.85
2022-08-20T00:57:59.964Z,60.75
2022-08-20T01:00:34.646Z,60.57
2022-08-20T01:03:09.852Z,60.56
2022-08-20T01:05:47.988Z,60.42
2022-08-20T01:08:21.862Z,60.33
2022-08-20T01:11:08.174Z,60.11
2022-08-20T01:13:41.065Z,59.90
2022-08-20T01:16:19.297Z,59.75
2022-08-20T01:18:51.707Z,59.86
2022-08-20T01:21:34.358Z,59.63
2022-08-20T01:24:21.022Z,59.14
2022-08-20T01:26:55.248Z,59.32
2022-08-20T01:29:31.827Z,59.36
2022-08-20T01:32:05.655Z,59.36
2022-08-20T01:34:37.577Z,59.52
2022-08-20T01:37:09.615Z,59.32
2022-08-20T01:39:43.189Z,59.62
2022-08-20T01:42:27.257Z,59.70
2022-08-20T01:45:00.506Z,59.75
2022-08-20T01:47:38.515Z,59.96
2022-08-20T01:50:18.684Z,60.00
2022-08-20T01:53:08.943Z,60.06
2022-08-20T01:55:41.071Z,59.84
2022-08-20T01:58:14.461Z,60.12
2022-08-20T02:00:46.684Z,59.97
2022-08-20T02:03:18.784Z,59.93
2022-08-20T02:05:53.036Z,59.98
2022-08-20T02:08:24.979Z,59.97
2022-08-20T02:10:57.294Z,59.85
2022-08-20T02:13:29.501Z,60.45
2022-08-20T02:16:06.048Z,60.40
2022-08-20T02:18:37.985Z,60.64
2022-08-20T02:21:10.066Z,60.79
2022-08-20T02:23:42.158Z,60.70
2022-08-20T02:26:14.399Z,60.81
2022-08-20T02:28:49.748Z,60.76
2022-08-20T02:31:22.897Z,60.98
2022-08-20T02:34:22.578Z,60.85
2022-08-20T02:37:07.063Z,60.98
2022-08-20T02:39:39.193Z,60.85
2022-08-20T02:42:12.346Z,60.97
2022-08-20T02:44:44.473Z,60.89
2022-08-20T02:47:17.207Z,61.24
2022-08-20T02:49:49.454Z,61.50
2022-08-20T02:52:21.603Z,61.29
2022-08-20T02:54:53.733Z,61.56
2022-08-20T02:57:25.770Z,61.46
2022-08-20T02:59:58.002Z,62.12
2022-08-20T03:02:30.290Z,62.26
2022-08-20T03:05:02.394Z,62.51
2022-08-20T03:07:53.682Z,62.76
2022-08-20T03:10:28.971Z,62.83
2022-08-20T03:13:02.601Z,62.94
2022-08-20T03:15:34.692Z,63.42
2022-08-20T03:18:06.937Z,63.56
2022-08-20T03:20:39.371Z,63.92
2022-08-20T03:23:12.264Z,64.50
2022-08-20T03:25:44.678Z,64.78
2022-08-20T03:28:18.391Z,64.89
2022-08-20T03:30:51.492Z,65.38
2022-08-20T03:33:24.096Z,65.71
2022-08-20T03:35:56.473Z,65.89
2022-08-20T03:38:32.450Z,66.32
2022-08-20T03:41:05.811Z,66.60
2022-08-20T03:43:37.870Z,66.84
2022-08-20T03:46:22.038Z,67.22
2022-08-20T03:48:59.878Z,67.52
2022-08-20T03:51:51.460Z,67.49
2022-08-20T03:54:31.582Z,67.67
2022-08-20T03:57:05.145Z,67.84
2022-08-20T03:59:45.015Z,68.07
2022-08-20T04:02:17.577Z,68.21
2022-08-20T04:04:49.657Z,68.76
2022-08-20T04:07:27.976Z,69.58
2022-08-20T04:10:00.014Z,69.28
2022-08-20T04:12:31.960Z,69.92
2022-08-20T04:15:04.453Z,70.03
2022-08-20T04:17:42.102Z,70.08
2022-08-20T04:20:18.531Z,70.35
2022-08-20T04:22:58.583Z,70.58
2022-08-20T04:25:36.073Z,70.73
2022-08-20T04:28:11.674Z,70.92
2022-08-20T04:30:51.638Z,71.04
2022-08-20T04:33:33.833Z,71.23
2022-08-20T04:36:07.538Z,71.64
2022-08-20T04:38:48.088Z,71.80
2022-08-20T04:41:24.258Z,72.09
2022-08-20T04:43:56.915Z,72.29
2022-08-20T04:46:29.154Z,72.34
2022-08-20T04:49:03.629Z,72.31
2022-08-20T04:51:35.709Z,72.72
2022-08-20T04:54:09.108Z,72.82
2022-08-20T04:56:41.080Z,72.82
2022-08-20T04:59:13.147Z,73.07
2022-08-20T05:01:45.585Z,72.87
2022-08-20T05:04:17.532Z,73.22
2022-08-20T05:06:49.687Z,73.26
2022-08-20T05:09:21.679Z,73.24
2022-08-20T05:11:53.585Z,73.23
2022-08-20T05:14:25.516Z,73.10
2022-08-20T05:16:57.641Z,73.20
2022-08-20T05:19:29.546Z,73.00
2022-08-20T05:22:01.676Z,73.03
2022-08-20T05:24:34.180Z,73.19
2022-08-20T05:27:06.407Z,73.21
2022-08-20T05:29:38.323Z,73.03
2022-08-20T05:32:12.302Z,73.19
2022-08-20T05:34:44.207Z,73.48
2022-08-20T05:37:17.451Z,73.46
2022-08-20T05:39:50.569Z,73.49
2022-08-20T05:42:22.829Z,73.73
2022-08-20T05:44:54.775Z,73.52
2022-08-20T05:47:28.525Z,73.22
2022-08-20T05:50:02.146Z,73.41
2022-08-20T05:52:34.203Z,73.20
2022-08-20T05:55:08.295Z,73.20
2022-08-20T05:57:42.099Z,73.01
2022-08-20T06:00:14.826Z,72.91
2022-08-20T06:03:05.713Z,72.31
2022-08-20T06:05:38.053Z,72.38
2022-08-20T06:08:11.379Z,72.29
2022-08-20T06:10:44.267Z,72.19
2022-08-20T06:13:16.105Z,72.30
2022-08-20T06:15:48.107Z,72.40
2022-08-20T06:18:28.628Z,72.17
2022-08-20T06:21:00.897Z,71.96
2022-08-20T06:23:40.270Z,71.94
2022-08-20T06:26:29.888Z,72.06
2022-08-20T06:29:04.803Z,72.07
2022-08-20T06:31:39.870Z,71.84
2022-08-20T06:34:11.806Z,71.99
2022-08-20T06:36:46.496Z,72.23
2022-08-20T06:39:18.424Z,71.96
2022-08-20T06:41:51.834Z,72.16
2022-08-20T06:44:24.996Z,72.43
2022-08-20T06:47:01.153Z,72.52
2022-08-20T06:49:36.748Z,72.79
2022-08-20T06:52:08.952Z,72.45
2022-08-20T06:54:45.587Z,72.58
2022-08-20T06:57:17.494Z,72.80
2022-08-20T06:59:54.054Z,72.83
2022-08-20T07:02:29.261Z,72.33
2022-08-20T07:05:04.896Z,72.25
2022-08-20T07:07:37.889Z,72.10
2022-08-20T07:10:12.205Z,71.89
2022-08-20T07:12:46.456Z,71.53
2022-08-20T07:15:19.871Z,70.90
2022-08-20T07:17:58.776Z,70.56
2022-08-20T07:20:35.606Z,70.41
2022-08-20T07:23:08.294Z,70.45
2022-08-20T07:25:43.072Z,70.20
2022-08-20T07:28:20.755Z,70.23
2022-08-20T07:31:13.765Z,69.83
2022-08-20T07:33:46.534Z,69.28
2022-08-20T07:36:22.316Z,68.76
2022-08-20T07:38:54.734Z,68.20
2022-08-20T07:41:29.093Z,68.09
2022-08-20T07:44:01.123Z,67.60
2022-08-20T07:46:33.175Z,67.24
2022-08-20T07:49:09.960Z,66.89
2022-08-20T07:51:41.905Z,66.61
2022-08-20T07:54:13.934Z,66.30
2022-08-20T07:56:45.941Z,66.04
2022-08-20T07:59:18.391Z,65.60
2022-08-20T08:01:50.391Z,65.48
2022-08-20T08:04:24.422Z,65.09
2022-08-20T08:07:00.218Z,64.42
2022-08-20T08:09:33.607Z,64.61
2022-08-20T08:12:05.910Z,64.15
2022-08-20T08:14:38.736Z,63.67
2022-08-20T08:17:11.421Z,63.66
2022-08-20T08:19:47.237Z,62.92
2022-08-20T08:22:19.409Z,62.81
2022-08-20T08:24:57.088Z,62.33
2022-08-20T08:27:33.289Z,61.90
2022-08-20T08:30:06.260Z,61.56
2022-08-20T08:32:58.629Z,61.48
2022-08-20T08:35:32.683Z,61.21
2022-08-20T08:38:04.941Z,60.66
2022-08-20T08:40:38.255Z,60.28
2022-08-20T08:43:12.827Z,60.14
2022-08-20T08:45:48.493Z,58.91
2022-08-20T08:48:21.183Z,58.58
2022-08-20T08:50:54.870Z,57.69
2022-08-20T08:53:33.363Z,56.99
2022-08-20T08:56:06.654Z,57.12
2022-08-20T08:58:38.681Z,56.94
2022-08-20T09:01:55.361Z,56.11
2022-08-20T09:04:09.576Z,56.04
2022-08-20T09:06:43.432Z,55.58
2022-08-20T09:09:21.009Z,54.90
2022-08-20T09:11:55.131Z,55.11
2022-08-20T09:14:27.170Z,54.75
2022-08-20T09:16:59.207Z,54.63
2022-08-20T09:19:32.002Z,54.78
2022-08-20T09:22:11.315Z,54.39
2022-08-20T09:24:43.524Z,54.89
2022-08-20T09:27:15.681Z,54.38
2022-08-20T09:29:49.407Z,53.82
2022-08-20T09:32:22.868Z,52.72
2022-08-20T09:34:56.439Z,52.54
2022-08-20T09:37:35.154Z,52.53
2022-08-20T09:40:09.634Z,52.74
2022-08-20T09:42:41.990Z,52.35
2022-08-20T09:45:14.569Z,52.14
2022-08-20T09:48:01.912Z,52.24
2022-08-20T09:50:35.434Z,52.11
2022-08-20T09:53:07.652Z,52.04
2022-08-20T09:55:42.083Z,51.18
2022-08-20T09:58:19.903Z,51.03
2022-08-20T10:00:52.598Z,50.95
2022-08-20T10:03:24.739Z,50.75
2022-08-20T10:05:56.930Z,51.00
2022-08-20T10:08:29.224Z,50.68
2022-08-20T10:11:01.232Z,50.69
2022-08-20T10:13:33.194Z,50.55
2022-08-20T10:16:05.684Z,50.05
2022-08-20T10:18:37.750Z,49.85
2022-08-20T10:21:13.074Z,49.46
2022-08-20T10:23:45.450Z,49.55
2022-08-20T10:26:17.629Z,49.87
2022-08-20T10:28:49.990Z,49.57
2022-08-20T10:31:22.113Z,50.01
2022-08-20T10:33:54.374Z,49.80
2022-08-20T10:36:26.381Z,49.39
2022-08-20T10:38:58.704Z,49.32
2022-08-20T10:41:30.676Z,49.24
2022-08-20T10:44:04.136Z,49.28
2022-08-20T10:46:36.263Z,48.52
2022-08-20T10:49:08.351Z,48.60
2022-08-20T10:51:40.518Z,47.93
2022-08-20T10:54:13.083Z,47.64
2022-08-20T10:56:45.169Z,46.74
2022-08-20T10:59:17.073Z,46.70
2022-08-20T11:01:49.095Z,46.43
2022-08-20T11:04:20.987Z,47.02
2022-08-20T11:06:53.246Z,47.53
2022-08-20T11:09:25.613Z,47.41
2022-08-20T11:11:57.461Z,47.93
2022-08-20T11:14:29.757Z,47.73
2022-08-20T11:17:02.702Z,47.92
2022-08-20T11:19:39.873Z,47.45
2022-08-20T11:22:11.752Z,47.08
2022-08-20T11:24:44.047Z,46.55
2022-08-20T11:27:25.402Z,45.80
2022-08-20T11:29:57.630Z,46.19
2022-08-20T11:32:29.774Z,45.72
2022-08-20T11:35:13.779Z,45.73
2022-08-20T11:37:55.830Z,46.16
2022-08-20T11:40:29.735Z,45.84
2022-08-20T11:43:18.607Z,45.25
2022-08-20T11:45:54.115Z,44.62
2022-08-20T11:48:26.017Z,43.76
2022-08-20T11:50:58.007Z,42.89
2022-08-20T11:53:30.833Z,41.80
2022-08-20T11:56:04.357Z,41.56
2022-08-20T11:58:36.790Z,41.15
2022-08-20T12:01:09.811Z,40.83
2022-08-20T12:03:41.783Z,40.54
2022-08-20T12:06:14.081Z,39.69
2022-08-20T12:08:46.003Z,39.35
2022-08-20T12:11:17.915Z,38.84
2022-08-20T12:13:50.005Z,38.09
2022-08-20T12:16:22.089Z,36.74
2022-08-20T12:18:53.987Z,35.48
2022-08-20T12:21:28.683Z,34.41
2022-08-20T12:24:02.704Z,33.03
2022-08-20T12:26:34.932Z,31.79
2022-08-20T12:29:07.162Z,31.12
2022-08-20T12:31:39.229Z,29.95
2022-08-20T12:34:11.321Z,28.63
2022-08-20T12:36:43.396Z,28.21
2022-08-20T12:39:15.427Z,27.52
2022-08-20T12:41:47.878Z,27.30
2022-08-20T12:44:20.359Z,27.66
2022-08-20T12:46:52.407Z,27.24
2022-08-20T12:49:24.671Z,27.39
2022-08-20T12:51:56.797Z,27.13
2022-08-20T12:54:29.075Z,26.63
2022-08-20T12:57:01.231Z,25.67
2022-08-20T12:59:33.383Z,25.39
2022-08-20T13:02:14.220Z,25.09
2022-08-20T13:04:50.936Z,25.21
2022-08-20T13:07:23.293Z,24.88
2022-08-20T13:09:55.711Z,24.33
2022-08-20T13:12:28.152Z,23.95
2022-08-20T13:15:00.439Z,23.69
2022-08-20T13:17:39.164Z,22.85
2022-08-20T13:20:15.300Z,22.56
2022-08-20T13:22:47.284Z,22.65
2022-08-20T13:25:19.721Z,22.55
2022-08-20T13:27:57.626Z,20.92
2022-08-20T13:30:30.302Z,21.60
2022-08-20T13:33:02.389Z,21.55
2022-08-20T13:35:34.501Z,21.43
2022-08-20T13:38:06.630Z,21.50
2022-08-20T13:40:38.783Z,21.48
2022-08-20T13:43:12.002Z,21.19
2022-08-20T13:45:44.317Z,21.22
2022-08-20T13:48:16.741Z,21.00
2022-08-20T13:50:48.992Z,20.69
2022-08-20T13:53:21.299Z,20.43
2022-08-20T13:55:53.617Z,20.10
2022-08-20T13:58:25.713Z,19.66
2022-08-20T14:00:58.078Z,19.74
2022-08-20T14:03:30.699Z,19.32
2022-08-20T14:06:04.018Z,19.24
2022-08-20T14:08:36.694Z,19.49
2022-08-20T14:11:08.640Z,19.36
2022-08-20T14:13:46.022Z,19.45
2022-08-20T14:16:21.317Z,19.73
2022-08-20T14:18:59.417Z,20.00
2022-08-20T14:21:31.715Z,20.13
2022-08-20T14:24:03.854Z,20.06
2022-08-20T14:26:36.490Z,20.09
2022-08-20T14:29:08.410Z,19.90
2022-08-20T14:31:40.749Z,20.15
2022-08-20T14:34:13.115Z,20.30
2022-08-20T14:36:45.206Z,20.87
2022-08-20T14:39:20.602Z,21.35
2022-08-20T14:41:52.611Z,21.83
2022-08-20T14:44:24.769Z,22.52
2022-08-20T14:46:56.986Z,23.09
2022-08-20T14:49:29.144Z,23.99
2022-08-20T14:52:01.245Z,24.61
2022-08-20T14:54:33.180Z,24.88
2022-08-20T14:57:05.796Z,25.30
2022-08-20T14:59:45.306Z,25.73
2022-08-20T15:02:17.946Z,26.14
2022-08-20T15:04:52.303Z,26.71
2022-08-20T15:07:33.026Z,27.25
2022-08-20T15:10:08.303Z,27.66
2022-08-20T15:12:43.041Z,27.59
2022-08-20T15:15:16.825Z,28.01
2022-08-20T15:17:55.215Z,28.29
2022-08-20T15:20:29.340Z,28.62
2022-08-20T15:23:02.184Z,28.90
2022-08-20T15:25:36.463Z,28.83
2022-08-20T15:28:10.168Z,29.15
2022-08-20T15:30:42.367Z,29.20
2022-08-20T15:33:14.494Z,29.50
2022-08-20T15:35:46.504Z,29.76
2022-08-20T15:38:18.633Z,30.15
2022-08-20T15:40:50.531Z,30.17
2022-08-20T15:43:22.709Z,30.47
2022-08-20T15:45:54.899Z,30.61
2022-08-20T15:48:41.421Z,30.95
2022-08-20T15:51:22.649Z,31.31
2022-08-20T15:54:06.592Z,31.56
2022-08-20T15:57:13.590Z,31.65
2022-08-20T16:00:14.377Z,32.14
2022-08-20T16:03:07.289Z,32.32
2022-08-20T16:05:47.677Z,32.29
2022-08-20T16:08:35.346Z,32.48
2022-08-20T16:11:16.094Z,32.58
2022-08-20T16:13:55.455Z,32.50
2022-08-20T16:16:29.556Z,32.79
2022-08-20T16:19:02.891Z,33.03
2022-08-20T16:21:37.849Z,32.97
2022-08-20T16:24:10.802Z,33.01
2022-08-20T16:26:51.577Z,33.52
2022-08-20T16:30:01.883Z,33.89
2022-08-20T16:32:38.503Z,33.33
2022-08-20T16:35:35.033Z,33.18
2022-08-20T16:38:20.887Z,33.48
2022-08-20T16:40:57.222Z,33.32
2022-08-20T16:43:34.527Z,33.50
2022-08-20T16:46:17.318Z,33.73
2022-08-20T16:48:57.930Z,33.88
2022-08-20T16:51:37.065Z,33.96
2022-08-20T16:54:10.400Z,34.21
2022-08-20T16:56:48.320Z,34.03
2022-08-20T16:59:21.150Z,33.84
2022-08-20T17:02:07.368Z,34.01
2022-08-20T17:04:59.980Z,33.84
2022-08-20T17:07:46.661Z,33.70
2022-08-20T17:10:26.055Z,33.53
2022-08-20T17:13:03.536Z,33.62
2022-08-20T17:15:35.869Z,33.76
2022-08-20T17:18:20.855Z,33.73
2022-08-20T17:20:53.379Z,33.97
2022-08-20T17:23:25.278Z,34.08
2022-08-20T17:26:03.837Z,34.47
2022-08-20T17:28:36.137Z,34.68
2022-08-20T17:31:08.098Z,34.87
2022-08-20T17:33:40.085Z,34.97
2022-08-20T17:36:20.261Z,35.08
2022-08-20T17:38:55.164Z,34.81
2022-08-20T17:41:27.124Z,34.79
2022-08-20T17:44:06.136Z,34.88
2022-08-20T17:46:45.731Z,35.21
2022-08-20T17:49:31.003Z,35.38
2022-08-20T17:52:06.898Z,35.34
2022-08-20T17:54:42.585Z,35.63
2022-08-20T17:57:18.277Z,35.90
2022-08-20T18:00:02.471Z,35.98
2022-08-20T18:02:37.594Z,35.92
2022-08-20T18:05:14.823Z,36.18
2022-08-20T18:08:08.136Z,36.45
2022-08-20T18:10:57.690Z,36.53
2022-08-20T18:13:35.541Z,36.42
2022-08-20T18:16:25.802Z,36.81
2022-08-20T18:19:19.015Z,36.96
2022-08-20T18:22:21.271Z,37.43
2022-08-20T18:25:34.957Z,38.03
2022-08-20T18:28:19.277Z,37.99
2022-08-20T18:30:57.506Z,38.16
2022-08-20T18:33:34.090Z,38.28
2022-08-20T18:36:27.976Z,39.01
2022-08-20T18:39:24.361Z,39.28
2022-08-20T18:42:00.747Z,39.20
2022-08-20T18:44:43.917Z,39.52
2022-08-20T18:47:43.476Z,39.79
2022-08-20T18:50:22.769Z,39.55
2022-08-20T18:53:17.353Z,39.98
2022-08-20T18:56:08.454Z,40.16
2022-08-20T18:59:17.986Z,40.47
2022-08-20T19:01:50.179Z,40.04
2022-08-20T19:04:31.969Z,40.61
2022-08-20T19:07:06.240Z,40.38
2022-08-20T19:09:52.285Z,41.22
2022-08-20T19:12:33.123Z,41.03
2022-08-20T19:15:08.866Z,41.16
2022-08-20T19:18:08.926Z,41.63
2022-08-20T19:20:48.930Z,41.44
2022-08-20T19:23:25.848Z,41.55
2022-08-20T19:26:24.755Z,42.29
2022-08-20T19:29:00.994Z,42.12
2022-08-20T19:31:34.632Z,42.28
2022-08-20T19:34:22.136Z,42.58
2022-08-20T19:37:04.533Z,42.72
2022-08-20T19:39:52.700Z,42.47
2022-08-20T19:42:28.321Z,42.99
2022-08-20T19:45:06.736Z,43.28
2022-08-20T19:48:03.617Z,43.48
2022-08-20T19:50:51.465Z,43.68
2022-08-20T19:53:31.845Z,43.45
2022-08-20T19:56:15.413Z,44.07
2022-08-20T19:58:59.532Z,44.23
2022-08-20T20:01:32.140Z,43.83
2022-08-20T20:04:07.037Z,44.17
2022-08-20T20:06:45.219Z,44.52
2022-08-20T20:09:22.206Z,44.60
2022-08-20T20:12:09.079Z,44.80
2022-08-20T20:14:41.519Z,44.62
2022-08-20T20:17:22.969Z,44.93
2022-08-20T20:20:02.119Z,44.97
2022-08-20T20:22:47.158Z,45.02
2022-08-20T20:25:21.301Z,45.25
2022-08-20T20:27:55.794Z,45.32
2022-08-20T20:30:30.940Z,45.44
2022-08-20T20:33:15.693Z,45.78
2022-08-20T20:35:47.978Z,45.55
2022-08-20T20:38:26.932Z,45.82
2022-08-20T20:41:03.708Z,46.06
2022-08-20T20:43:42.002Z,46.15
2022-08-20T20:46:22.551Z,46.04
2022-08-20T20:48:59.168Z,46.20
2022-08-20T20:51:34.283Z,46.21
2022-08-20T20:54:25.899Z,46.52
2022-08-20T20:57:03.825Z,46.22
2022-08-20T20:59:36.155Z,46.45
2022-08-20T21:02:08.487Z,46.43
2022-08-20T21:04:42.716Z,46.40
2022-08-20T21:07:17.835Z,46.58
2022-08-20T21:09:51.966Z,46.69
2022-08-20T21:12:24.114Z,46.81
2022-08-20T21:14:56.156Z,46.92
2022-08-20T21:17:28.439Z,46.95
2022-08-20T21:20:01.871Z,46.94
2022-08-20T21:22:34.020Z,47.05
2022-08-20T21:25:06.441Z,47.18
2022-08-20T21:27:47.701Z,47.46
2022-08-20T21:30:21.735Z,47.22
2022-08-20T21:32:54.165Z,47.47
2022-08-20T21:35:26.698Z,47.45
2022-08-20T21:37:58.696Z,47.62
2022-08-20T21:40:30.885Z,47.82
2022-08-20T21:43:03.270Z,47.89
2022-08-20T21:45:38.223Z,47.96
2022-08-20T21:48:10.301Z,48.10
2022-08-20T21:50:42.391Z,48.13
2022-08-20T21:53:14.425Z,48.03
2022-08-20T21:55:46.520Z,48.23
2022-08-20T21:58:19.423Z,48.24
2022-08-20T22:00:57.717Z,48.43
2022-08-20T22:03:38.482Z,48.54
2022-08-20T22:06:13.612Z,48.50
2022-08-20T22:08:45.589Z,48.34
2022-08-20T22:11:17.835Z,48.39
2022-08-20T22:13:49.980Z,48.58
2022-08-20T22:16:22.279Z,48.54
2022-08-20T22:18:54.326Z,48.70
2022-08-20T22:21:29.343Z,48.83
2022-08-20T22:24:05.961Z,48.81
2022-08-20T22:26:40.163Z,48.82
2022-08-20T22:29:12.880Z,48.94
2022-08-20T22:31:45.021Z,49.05
2022-08-20T22:34:19.072Z,49.06
2022-08-20T22:36:53.534Z,49.09
2022-08-20T22:39:25.595Z,49.28
2022-08-20T22:41:57.657Z,49.30
2022-08-20T22:44:29.678Z,49.30
2022-08-20T22:47:05.555Z,49.52
2022-08-20T22:49:39.823Z,49.49
2022-08-20T22:52:12.243Z,49.47
2022-08-20T22:54:45.884Z,49.82
2022-08-20T22:57:19.378Z,49.56
2022-08-20T22:59:53.224Z,49.81
2022-08-20T23:02:25.537Z,49.90
2022-08-20T23:04:57.668Z,49.87
2022-08-20T23:07:29.747Z,49.98
2022-08-20T23:10:01.815Z,50.04
2022-08-20T23:12:33.837Z,50.16
2022-08-20T23:15:06.724Z,50.28
2022-08-20T23:17:38.954Z,50.45
2022-08-20T23:20:13.836Z,50.69
2022-08-20T23:22:45.758Z,50.74
2022-08-20T23:25:17.831Z,50.83
2022-08-20T23:27:51.256Z,50.82
2022-08-20T23:30:24.501Z,51.01
2022-08-20T23:32:56.668Z,50.87
2022-08-20T23:35:32.038Z,51.03
2022-08-20T23:38:05.263Z,51.16
2022-08-20T23:40:38.758Z,51.05
2022-08-20T23:43:11.266Z,51.23
2022-08-20T23:45:43.396Z,51.16
2022-08-20T23:48:15.344Z,51.45
2022-08-20T23:50:47.441Z,51.64
2022-08-20T23:53:19.409Z,51.41
2022-08-20T23:55:51.310Z,51.26
2022-08-20T23:58:23.549Z,51.51
